Bei Facebook empfehlenBei Twitter postenGoogle plusPinterest

Das Wetter im Erzgebirge am 09.10.2016

Wetter und Klima am 09.10.2016 Holzhau im Erzgebirge (630m ü.NN)
Letzte gemessene Temperatur und Uhrzeit der Messung23:45:00 Uhr0.40 °C
Temperatur (Maximum / Höchstwert) und Uhrzeit der Messung15:15:00 Uhr8.40 °C
Temperatur (Minimum / Tiefstwert) und Uhrzeit der Messung23:45:000.40 °C
Errechneter Absolutwert der Temperaturschwankungen zwischen Tmin und Tmax des Tages8.00 K
Errechnete Tagesmitteltemperatur4.58854 °C
Gesamt - Niederschlag des Tages (in flüssiger Form)1.03 Liter / m²
Luftdruck (Maximum / Höchstwert) und Zeitpunkt der Messung23:45:00 Uhr1019.70 hPa
Luftdruck (Minimum / Tiefstwert) und Zeitpunkt der Messung06:15:00 Uhr1016.20 hPa
Errechneter Absolutwert der Luftdruckschwankungen des Tages3.50 hPa
Höchste gemessene Windgeschwindigkeit und Uhrzeit der Messung23:45:00 Uhr0.00 km/h
Errechnete Windhäufigkeit in Relation zu den Messwerten des Tages0.00000 %
Niedrigste Windkühle (Windchill) und Zeitpunkt der Messung23:45:00 Uhr0.40 °C
Taupunkt (Maximum / Höchstwert) und Uhrzeit der Messung15:15:00 Uhr6.70 °C
Taupunkt (Minimum / Tiefstwert) und Uhrzeit der Messung20:00:00-0.70 °C
Anzahl der automatisch eingelesenen Messwerte 96

Detaillierte Wetter- und Klima- Messwerte für den 09.10.2016 in Holzhau im Erzgebirge (630m ü.NN)
ZeitTemperaturLuftdruckRel. LuftfeuchteWindWindrichtungWindchillTaupunktNiederschlag l/m²
23:45:000.40 °C1019.70 hPa93.00 %-0.60 °C1.03
23:30:000.50 °C1019.60 hPa93.00 %-0.50 °C1.03
23:15:000.60 °C1019.70 hPa93.00 %-0.40 °C1.03
23:00:000.70 °C1019.70 hPa93.00 %-0.30 °C1.03
22:45:000.80 °C1019.60 hPa92.00 %-0.30 °C1.03
22:30:000.60 °C1019.50 hPa92.00 %-0.50 °C1.03
22:15:000.60 °C1019.50 hPa92.00 %-0.50 °C1.03
22:00:000.80 °C1019.50 hPa92.00 %-0.30 °C1.03
21:45:000.90 °C1019.60 hPa91.00 %-0.40 °C1.03
21:30:001.30 °C1019.60 hPa91.00 %0.00 °C1.03
21:15:001.60 °C1019.40 hPa92.00 %0.40 °C1.03
21:00:001.50 °C1019.40 hPa92.00 %0.30 °C1.03
20:45:001.30 °C1019.40 hPa91.00 %0.00 °C1.03
20:30:001.20 °C1019.30 hPa91.00 %-0.10 °C1.03
20:15:000.90 °C1019.20 hPa91.00 %-0.40 °C1.03
20:00:000.70 °C1019.10 hPa90.00 %-0.70 °C1.03
19:45:000.90 °C1019.00 hPa89.00 %-0.70 °C1.03
19:30:001.00 °C1018.90 hPa89.00 %-0.60 °C1.03
19:15:001.30 °C1018.80 hPa89.00 %-0.30 °C1.03
19:00:001.80 °C1018.70 hPa88.00 %0.00 °C1.03
18:45:002.30 °C1018.60 hPa88.00 %0.50 °C1.03
18:30:002.90 °C1018.50 hPa87.00 %1.00 °C1.03
18:15:003.80 °C1018.40 hPa87.00 %1.80 °C1.03
18:00:004.50 °C1018.00 hPa87.00 %2.50 °C1.03
17:45:005.30 °C1018.00 hPa86.00 %3.20 °C1.03
17:30:005.90 °C1018.00 hPa87.00 %3.90 °C1.03
17:15:006.10 °C1018.10 hPa86.00 %3.90 °C1.03
17:00:006.40 °C1018.00 hPa85.00 %4.10 °C1.03
16:45:007.20 °C1017.90 hPa85.00 %4.90 °C1.03
16:30:007.50 °C1018.10 hPa85.00 %5.10 °C1.03
16:15:007.80 °C1018.10 hPa86.00 %5.60 °C1.03
16:00:008.20 °C1018.00 hPa86.00 %6.00 °C1.03
15:45:008.10 °C1018.10 hPa87.00 %6.10 °C1.03
15:30:007.60 °C1018.00 hPa87.00 %5.60 °C1.03
15:15:008.40 °C1017.90 hPa89.00 %6.70 °C1.03
15:00:007.90 °C1018.00 hPa91.00 %6.50 °C1.03
14:45:007.30 °C1018.00 hPa91.00 %5.90 °C1.03
14:30:007.30 °C1018.00 hPa92.00 %6.10 °C1.03
14:15:007.30 °C1018.00 hPa92.00 %6.10 °C1.03
14:00:007.30 °C1018.10 hPa93.00 %6.20 °C1.03
13:45:007.20 °C1017.80 hPa94.00 %6.30 °C1.03
13:30:007.30 °C1017.90 hPa94.00 %6.40 °C1.03
13:15:007.00 °C1017.80 hPa95.00 %6.30 °C1.03
13:00:007.40 °C1017.80 hPa95.00 %6.70 °C1.03
12:45:006.90 °C1017.90 hPa96.00 %6.30 °C1.03
12:30:006.40 °C1017.80 hPa95.00 %5.70 °C1.03
12:15:006.10 °C1017.90 hPa96.00 %5.50 °C1.03
12:00:005.80 °C1017.90 hPa96.00 %5.20 °C1.03
11:45:005.80 °C1017.70 hPa96.00 %5.20 °C1.03
11:30:005.80 °C1017.60 hPa96.00 %5.20 °C1.03
11:15:005.60 °C1017.50 hPa96.00 %5.00 °C1.03
11:00:005.70 °C1017.40 hPa96.00 %5.10 °C1.03
10:45:005.40 °C1017.30 hPa96.00 %4.80 °C1.03
10:30:005.40 °C1017.20 hPa96.00 %4.80 °C1.03
10:15:005.40 °C1017.20 hPa96.00 %4.80 °C1.03
10:00:005.10 °C1017.00 hPa96.00 %4.50 °C1.03
09:45:004.80 °C1017.20 hPa96.00 %4.20 °C1.03
09:30:004.60 °C1017.20 hPa96.00 %4.00 °C1.03
09:15:004.60 °C1017.00 hPa96.00 %4.00 °C1.03
09:00:004.50 °C1017.30 hPa96.00 %3.90 °C1.03
08:45:004.50 °C1017.10 hPa96.00 %3.90 °C1.03
08:30:004.50 °C1017.00 hPa96.00 %3.90 °C1.03
08:15:004.40 °C1017.00 hPa96.00 %3.80 °C1.03
08:00:004.40 °C1016.90 hPa96.00 %3.80 °C1.03
07:45:004.50 °C1016.80 hPa96.00 %3.90 °C1.03
07:30:004.50 °C1016.70 hPa96.00 %3.90 °C1.03
07:15:004.60 °C1016.60 hPa96.00 %4.00 °C1.03
07:00:004.60 °C1016.60 hPa96.00 %4.00 °C1.03
06:45:004.70 °C1016.60 hPa96.00 %4.10 °C1.03
06:30:004.70 °C1016.40 hPa96.00 %4.10 °C1.03
06:15:004.70 °C1016.20 hPa96.00 %4.10 °C1.03
06:00:004.80 °C1016.30 hPa96.00 %4.20 °C1.03
05:45:004.80 °C1016.30 hPa96.00 %4.20 °C1.03
05:30:004.90 °C1016.40 hPa96.00 %4.30 °C1.03
05:15:005.00 °C1016.50 hPa96.00 %4.40 °C1.03
05:00:005.00 °C1016.50 hPa96.00 %4.40 °C1.03
04:45:005.00 °C1016.40 hPa96.00 %4.40 °C1.03
04:30:005.00 °C1016.30 hPa96.00 %4.40 °C1.03
04:15:005.10 °C1016.20 hPa96.00 %4.50 °C1.03
04:00:005.10 °C1016.20 hPa96.00 %4.50 °C0.51
03:45:005.10 °C1016.30 hPa96.00 %4.50 °C 
03:30:005.10 °C1016.50 hPa96.00 %4.50 °C 
03:15:005.00 °C1016.50 hPa96.00 %4.40 °C 
03:00:005.10 °C1016.60 hPa96.00 %4.50 °C 
02:45:005.10 °C1016.60 hPa96.00 %4.50 °C 
02:30:005.10 °C1016.60 hPa96.00 %4.50 °C 
02:15:005.00 °C1016.50 hPa96.00 %4.40 °C 
02:00:004.90 °C1016.60 hPa96.00 %4.30 °C 
01:45:004.90 °C1016.70 hPa96.00 %4.30 °C 
01:30:005.00 °C1016.70 hPa96.00 %4.40 °C 
01:15:005.00 °C1016.60 hPa96.00 %4.40 °C 
01:00:005.00 °C1016.60 hPa96.00 %4.40 °C 
00:45:005.10 °C1016.60 hPa96.00 %4.50 °C 
00:30:005.10 °C1016.70 hPa96.00 %4.50 °C 
00:15:005.00 °C1016.80 hPa96.00 %4.40 °C 
00:00:004.90 °C1016.70 hPa96.00 %4.30 °C 

Permanenter Link zu dieser Seite: Wetter im Erzgebirge am 09.10.2016
Performance-Info: Die Erstellung der Seite / Statistik(en) / Tabelle(n) erforderte 5 Datenbankserver-Abfrage(n) und dauerte 101 Millisekunden. (Dieser Messwert ist von der Gesamt-Auslastung des Servers abhängig.)
Erzgebirge - Wetter | Erzgebirge - Wetter (Mobilgeräte) | Komplette Klimadatenbank